DTA233 HECA-DGAA
Flight info
| Callsign | DTA233 |
|---|---|
| Flight time | 5h 20m |
| Altitude | 40000 |
| Route | FYM M720 DITAR DCT TONBA DCT ILDOR UQ592 DEMOX DCT BUNLU DCT TAPAK DCT GURAP UH340 LAG UL433 EREKA EREKA1B |
| Aircraft | B772/H-SDE2E3FGHIJ5LORVWXY/LB1D1 |
Departure
| Time | 2026-05-04 16:07 |
|---|---|
| Airport | Cairo International Airport (HECA) |
Arrival
| Time | 2026-05-04 21:28 |
|---|---|
| Airport | Kotoka International Airport (DGAA) |
| Time | Latitude | Longitude | Altitude | Speed | Heading |
|---|---|---|---|---|---|
| 2026-05-04 15:35 | 30.11384 | 31.41008 | 393 ft | 0 kts | 319° |
| 2026-05-04 15:55 | 30.11374 | 31.41017 | 393 ft | 2 kts | 319° |
| 2026-05-04 15:55 | 30.11363 | 31.41029 | 393 ft | 2 kts | 319° |
| 2026-05-04 15:56 | 30.11351 | 31.41040 | 393 ft | 2 kts | 333° |
| 2026-05-04 15:56 | 30.11337 | 31.41045 | 393 ft | 2 kts | 353° |
| 2026-05-04 15:56 | 30.11322 | 31.41045 | 393 ft | 2 kts | 10° |
| 2026-05-04 15:56 | 30.11307 | 31.41040 | 393 ft | 2 kts | 28° |
| 2026-05-04 15:57 | 30.11295 | 31.41030 | 393 ft | 1 kts | 46° |
| 2026-05-04 15:57 | 30.11291 | 31.41025 | 393 ft | 0 kts | 49° |
| 2026-05-04 16:01 | 30.11292 | 31.41026 | 393 ft | 1 kts | 49° |
| 2026-05-04 16:02 | 30.11307 | 31.41047 | 393 ft | 5 kts | 50° |
| 2026-05-04 16:02 | 30.11338 | 31.41090 | 393 ft | 8 kts | 51° |
| 2026-05-04 16:02 | 30.11426 | 31.41232 | 393 ft | 9 kts | 103° |
| 2026-05-04 16:03 | 30.11396 | 31.41308 | 393 ft | 12 kts | 81° |
| 2026-05-04 16:03 | 30.11452 | 31.41398 | 393 ft | 15 kts | 47° |
| 2026-05-04 16:03 | 30.11531 | 31.41505 | 393 ft | 19 kts | 50° |
| 2026-05-04 16:03 | 30.11627 | 31.41634 | 393 ft | 23 kts | 48° |
| 2026-05-04 16:04 | 30.11741 | 31.41788 | 393 ft | 27 kts | 49° |
| 2026-05-04 16:04 | 30.12021 | 31.42160 | 393 ft | 32 kts | 50° |
| 2026-05-04 16:04 | 30.12169 | 31.42354 | 393 ft | 22 kts | 50° |
| 2026-05-04 16:05 | 30.12199 | 31.42460 | 393 ft | 14 kts | 103° |
| 2026-05-04 16:05 | 30.12126 | 31.42547 | 393 ft | 15 kts | 139° |
| 2026-05-04 16:05 | 30.12034 | 31.42565 | 393 ft | 6 kts | 229° |
| 2026-05-04 16:06 | 30.12025 | 31.42553 | 393 ft | 0 kts | 230° |
| 2026-05-04 16:06 | 30.11261 | 31.41538 | 393 ft | 144 kts | 229° |
| 2026-05-04 16:07 | 30.10562 | 31.40554 | 708 ft | 161 kts | 235° |
| 2026-05-04 16:07 | 30.07525 | 31.38399 | 1890 ft | 204 kts | 206° |
| 2026-05-04 16:08 | 30.06399 | 31.37361 | 1915 ft | 221 kts | 243° |
| 2026-05-04 16:08 | 30.03536 | 31.32410 | 3221 ft | 260 kts | 236° |
| 2026-05-04 16:09 | 30.01289 | 31.29101 | 4511 ft | 265 kts | 236° |
| 2026-05-04 16:09 | 29.98994 | 31.25718 | 5787 ft | 268 kts | 236° |
| 2026-05-04 16:10 | 29.96699 | 31.22336 | 7099 ft | 269 kts | 236° |
| 2026-05-04 16:11 | 29.93236 | 31.17239 | 8953 ft | 271 kts | 237° |
| 2026-05-04 16:11 | 29.92072 | 31.15527 | 9560 ft | 272 kts | 237° |
| 2026-05-04 16:12 | 29.88436 | 31.10172 | 10467 ft | 309 kts | 237° |
| 2026-05-04 16:12 | 29.84066 | 31.03758 | 10828 ft | 359 kts | 236° |
| 2026-05-04 16:13 | 29.80992 | 30.99261 | 12174 ft | 359 kts | 236° |
| 2026-05-04 16:13 | 29.77884 | 30.94714 | 13478 ft | 363 kts | 236° |
| 2026-05-04 16:14 | 29.74757 | 30.90143 | 15028 ft | 366 kts | 237° |
| 2026-05-04 16:14 | 29.71597 | 30.85527 | 16629 ft | 369 kts | 237° |
| 2026-05-04 16:15 | 29.66802 | 30.78533 | 18819 ft | 376 kts | 237° |
| 2026-05-04 16:16 | 29.63541 | 30.73784 | 20148 ft | 383 kts | 237° |
| 2026-05-04 16:16 | 29.58543 | 30.66515 | 22095 ft | 392 kts | 237° |
| 2026-05-04 16:17 | 29.55116 | 30.61538 | 23329 ft | 398 kts | 237° |
| 2026-05-04 16:18 | 29.49910 | 30.53990 | 25064 ft | 408 kts | 237° |
| 2026-05-04 16:18 | 29.48134 | 30.51419 | 25629 ft | 411 kts | 237° |
| 2026-05-04 16:19 | 29.42901 | 30.43510 | 27142 ft | 417 kts | 244° |
| 2026-05-04 16:19 | 29.40660 | 30.37434 | 28169 ft | 415 kts | 257° |
| 2026-05-04 16:20 | 29.39981 | 30.27532 | 29682 ft | 420 kts | 270° |
| 2026-05-04 16:20 | 29.40108 | 30.20817 | 30693 ft | 423 kts | 270° |
| 2026-05-04 16:21 | 29.40292 | 30.10803 | 32727 ft | 413 kts | 270° |
| 2026-05-04 16:22 | 29.40409 | 30.04223 | 33950 ft | 409 kts | 271° |
| 2026-05-04 16:22 | 29.40576 | 29.94460 | 35503 ft | 405 kts | 270° |
| 2026-05-04 16:23 | 29.40734 | 29.84819 | 36752 ft | 403 kts | 270° |
| 2026-05-04 16:24 | 29.40934 | 29.71969 | 37978 ft | 403 kts | 271° |
| 2026-05-04 16:25 | 29.41029 | 29.65551 | 38468 ft | 404 kts | 270° |
| 2026-05-04 16:26 | 29.41211 | 29.52678 | 39351 ft | 403 kts | 270° |
| 2026-05-04 16:26 | 29.41339 | 29.43065 | 39890 ft | 403 kts | 271° |
| 2026-05-04 16:27 | 29.41420 | 29.36620 | 40011 ft | 406 kts | 271° |
| 2026-05-04 16:28 | 29.41538 | 29.26808 | 40041 ft | 412 kts | 270° |
| 2026-05-04 16:29 | 29.39279 | 29.03928 | 40079 ft | 426 kts | 247° |
| 2026-05-04 16:31 | 29.31256 | 28.89498 | 40077 ft | 432 kts | 242° |
| 2026-05-04 16:32 | 29.21278 | 28.72312 | 40071 ft | 432 kts | 241° |
| 2026-05-04 16:33 | 29.14599 | 28.60871 | 40072 ft | 433 kts | 242° |
| 2026-05-04 16:34 | 29.09562 | 28.52266 | 40072 ft | 433 kts | 242° |
| 2026-05-04 16:35 | 28.99548 | 28.35085 | 40071 ft | 433 kts | 242° |
| 2026-05-04 16:36 | 28.94554 | 28.26439 | 40087 ft | 435 kts | 242° |
| 2026-05-04 16:37 | 28.89550 | 28.17801 | 40087 ft | 434 kts | 242° |
| 2026-05-04 16:38 | 28.82868 | 28.06309 | 40088 ft | 435 kts | 242° |
| 2026-05-04 16:39 | 28.74481 | 27.91972 | 40085 ft | 435 kts | 241° |
| 2026-05-04 16:40 | 28.67773 | 27.80529 | 40085 ft | 435 kts | 242° |
| 2026-05-04 16:41 | 28.59382 | 27.66186 | 40081 ft | 434 kts | 242° |
| 2026-05-04 16:43 | 28.50990 | 27.51894 | 40071 ft | 435 kts | 242° |
| 2026-05-04 16:43 | 28.45931 | 27.43300 | 40071 ft | 435 kts | 242° |
| 2026-05-04 16:45 | 28.35807 | 27.26157 | 40088 ft | 436 kts | 241° |
| 2026-05-04 16:46 | 28.27334 | 27.11864 | 40092 ft | 436 kts | 241° |
| 2026-05-04 16:47 | 28.20560 | 27.00469 | 40087 ft | 436 kts | 241° |
| 2026-05-04 16:48 | 28.13768 | 26.89075 | 40087 ft | 437 kts | 242° |
| 2026-05-04 16:49 | 28.06951 | 26.77671 | 40087 ft | 436 kts | 241° |
| 2026-05-04 16:50 | 28.00122 | 26.66276 | 40080 ft | 437 kts | 242° |
| 2026-05-04 16:51 | 27.95003 | 26.57752 | 40077 ft | 437 kts | 242° |
| 2026-05-04 16:52 | 27.88162 | 26.46391 | 40080 ft | 437 kts | 241° |
| 2026-05-04 16:53 | 27.83019 | 26.37867 | 40074 ft | 437 kts | 242° |
| 2026-05-04 16:54 | 27.76141 | 26.26495 | 40096 ft | 438 kts | 241° |
| 2026-05-04 16:55 | 27.65812 | 26.09473 | 40085 ft | 439 kts | 241° |
| 2026-05-04 16:56 | 27.57182 | 25.95302 | 40093 ft | 438 kts | 241° |
| 2026-05-04 16:57 | 27.52002 | 25.86819 | 40085 ft | 438 kts | 241° |
| 2026-05-04 16:58 | 27.45065 | 25.75483 | 40087 ft | 440 kts | 241° |
| 2026-05-04 17:00 | 27.34655 | 25.58527 | 40097 ft | 439 kts | 241° |
| 2026-05-04 17:01 | 27.25952 | 25.44400 | 40095 ft | 439 kts | 241° |
| 2026-05-04 17:02 | 27.18982 | 25.33119 | 40106 ft | 440 kts | 241° |
| 2026-05-04 17:03 | 27.13757 | 25.24681 | 40104 ft | 440 kts | 240° |
| 2026-05-04 17:03 | 27.08499 | 25.16206 | 40098 ft | 440 kts | 240° |
| 2026-05-04 17:04 | 27.01473 | 25.04907 | 40101 ft | 440 kts | 240° |
| 2026-05-04 17:05 | 26.93119 | 24.94678 | 40098 ft | 451 kts | 229° |
| 2026-05-04 17:06 | 26.86130 | 24.87581 | 40088 ft | 450 kts | 229° |
| 2026-05-04 17:07 | 26.79922 | 24.81301 | 40082 ft | 451 kts | 229° |
| 2026-05-04 17:07 | 26.74482 | 24.75812 | 40087 ft | 450 kts | 229° |
| 2026-05-04 17:08 | 26.67498 | 24.68778 | 40085 ft | 450 kts | 229° |
| 2026-05-04 17:09 | 26.62816 | 24.64070 | 40094 ft | 450 kts | 229° |
| 2026-05-04 17:09 | 26.58170 | 24.59404 | 40076 ft | 450 kts | 229° |
| 2026-05-04 17:10 | 26.46539 | 24.47747 | 40074 ft | 448 kts | 229° |
| 2026-05-04 17:11 | 26.41870 | 24.43077 | 40080 ft | 448 kts | 229° |
| 2026-05-04 17:12 | 26.34931 | 24.36146 | 40088 ft | 448 kts | 229° |
| 2026-05-04 17:13 | 26.23284 | 24.24538 | 40091 ft | 448 kts | 229° |
| 2026-05-04 17:14 | 26.13979 | 24.15288 | 40090 ft | 448 kts | 229° |
| 2026-05-04 17:15 | 26.06975 | 24.08338 | 40103 ft | 448 kts | 229° |
| 2026-05-04 17:16 | 25.97671 | 23.99126 | 40103 ft | 448 kts | 228° |
| 2026-05-04 17:17 | 25.88338 | 23.89904 | 40088 ft | 446 kts | 229° |
| 2026-05-04 17:18 | 25.79019 | 23.80717 | 40085 ft | 447 kts | 229° |
| 2026-05-04 17:19 | 25.69717 | 23.71566 | 40092 ft | 447 kts | 228° |
| 2026-05-04 17:20 | 25.60380 | 23.62400 | 40099 ft | 447 kts | 228° |
| 2026-05-04 17:20 | 25.53376 | 23.55539 | 40086 ft | 447 kts | 228° |
| 2026-05-04 17:21 | 25.44054 | 23.46423 | 40090 ft | 446 kts | 228° |
| 2026-05-04 17:22 | 25.39411 | 23.41890 | 40087 ft | 447 kts | 228° |
| 2026-05-04 17:23 | 25.30045 | 23.32761 | 40103 ft | 447 kts | 228° |
| 2026-05-04 17:24 | 25.23026 | 23.25932 | 40104 ft | 448 kts | 228° |
| 2026-05-04 17:25 | 25.13663 | 23.16840 | 40099 ft | 448 kts | 228° |
| 2026-05-04 17:26 | 25.04285 | 23.07753 | 40095 ft | 448 kts | 228° |
| 2026-05-04 17:27 | 24.92536 | 22.96394 | 40096 ft | 448 kts | 227° |
| 2026-05-04 17:28 | 24.83131 | 22.87324 | 40090 ft | 449 kts | 227° |
| 2026-05-04 17:29 | 24.68969 | 22.73701 | 40064 ft | 450 kts | 227° |
| 2026-05-04 17:31 | 24.57162 | 22.62377 | 40061 ft | 450 kts | 227° |
| 2026-05-04 17:32 | 24.45362 | 22.51090 | 40057 ft | 450 kts | 227° |
| 2026-05-04 17:33 | 24.35887 | 22.42046 | 40057 ft | 450 kts | 227° |
| 2026-05-04 17:34 | 24.26391 | 22.33002 | 40085 ft | 451 kts | 227° |
| 2026-05-04 17:35 | 24.14487 | 22.21691 | 40081 ft | 453 kts | 227° |
| 2026-05-04 17:36 | 24.09733 | 22.17181 | 40092 ft | 452 kts | 227° |
| 2026-05-04 17:36 | 24.04965 | 22.12663 | 40095 ft | 453 kts | 227° |
| 2026-05-04 17:37 | 24.00186 | 22.08139 | 40091 ft | 453 kts | 227° |
| 2026-05-04 17:37 | 23.95431 | 22.03643 | 40102 ft | 454 kts | 227° |
| 2026-05-04 17:38 | 23.90654 | 21.99130 | 40105 ft | 454 kts | 227° |
| 2026-05-04 17:38 | 23.85867 | 21.94613 | 40105 ft | 453 kts | 227° |
| 2026-05-04 17:39 | 23.78678 | 21.87838 | 40104 ft | 453 kts | 227° |
| 2026-05-04 17:39 | 23.73875 | 21.83316 | 40104 ft | 454 kts | 227° |
| 2026-05-04 17:40 | 23.69094 | 21.78819 | 40094 ft | 454 kts | 227° |
| 2026-05-04 17:40 | 23.64316 | 21.74331 | 40096 ft | 454 kts | 227° |
| 2026-05-04 17:41 | 23.59498 | 21.69809 | 40088 ft | 454 kts | 227° |
| 2026-05-04 17:41 | 23.54737 | 21.65346 | 40087 ft | 453 kts | 227° |
| 2026-05-04 17:42 | 23.49940 | 21.60853 | 40081 ft | 453 kts | 227° |
| 2026-05-04 17:42 | 23.45169 | 21.56388 | 40078 ft | 453 kts | 227° |
| 2026-05-04 17:43 | 23.40365 | 21.51898 | 40077 ft | 453 kts | 227° |
| 2026-05-04 17:43 | 23.35566 | 21.47417 | 40073 ft | 453 kts | 227° |
| 2026-05-04 17:44 | 23.30771 | 21.42944 | 40073 ft | 453 kts | 226° |
| 2026-05-04 17:44 | 23.25997 | 21.38494 | 40069 ft | 454 kts | 226° |
| 2026-05-04 17:45 | 23.21198 | 21.34026 | 40077 ft | 453 kts | 226° |
| 2026-05-04 17:45 | 23.16391 | 21.29555 | 40076 ft | 453 kts | 226° |
| 2026-05-04 17:46 | 23.11587 | 21.25091 | 40072 ft | 452 kts | 226° |
| 2026-05-04 17:46 | 23.06780 | 21.20628 | 40070 ft | 454 kts | 226° |
| 2026-05-04 17:47 | 23.01999 | 21.16194 | 40074 ft | 453 kts | 226° |
| 2026-05-04 17:47 | 22.97190 | 21.11738 | 40071 ft | 453 kts | 226° |
| 2026-05-04 17:48 | 22.92382 | 21.07287 | 40074 ft | 453 kts | 226° |
| 2026-05-04 17:48 | 22.87599 | 21.02865 | 40075 ft | 452 kts | 226° |
| 2026-05-04 17:49 | 22.82785 | 20.98417 | 40079 ft | 452 kts | 226° |
| 2026-05-04 17:49 | 22.77996 | 20.93997 | 40076 ft | 453 kts | 226° |
| 2026-05-04 17:50 | 22.73196 | 20.89570 | 40074 ft | 453 kts | 226° |
| 2026-05-04 17:50 | 22.68406 | 20.85158 | 40079 ft | 452 kts | 226° |
| 2026-05-04 17:51 | 22.63593 | 20.80729 | 40082 ft | 453 kts | 226° |
| 2026-05-04 17:51 | 22.58788 | 20.76310 | 40087 ft | 452 kts | 226° |
| 2026-05-04 17:52 | 22.53981 | 20.71895 | 40087 ft | 452 kts | 226° |
| 2026-05-04 17:52 | 22.49176 | 20.67485 | 40083 ft | 452 kts | 226° |
| 2026-05-04 17:53 | 22.44357 | 20.63067 | 40076 ft | 453 kts | 226° |
| 2026-05-04 17:53 | 22.39552 | 20.58665 | 40067 ft | 453 kts | 226° |
| 2026-05-04 17:54 | 22.34741 | 20.54263 | 40063 ft | 452 kts | 226° |
| 2026-05-04 17:54 | 22.29922 | 20.49857 | 40059 ft | 452 kts | 226° |
| 2026-05-04 17:55 | 22.25099 | 20.45452 | 40059 ft | 452 kts | 226° |
| 2026-05-04 17:55 | 22.20297 | 20.41069 | 40058 ft | 452 kts | 226° |
| 2026-05-04 17:56 | 22.15482 | 20.36679 | 40061 ft | 452 kts | 226° |
| 2026-05-04 17:56 | 22.10680 | 20.32305 | 40076 ft | 453 kts | 226° |
| 2026-05-04 17:57 | 22.05838 | 20.27898 | 40078 ft | 452 kts | 226° |
| 2026-05-04 17:57 | 22.01030 | 20.23528 | 40076 ft | 452 kts | 226° |
| 2026-05-04 17:58 | 21.96225 | 20.19163 | 40078 ft | 452 kts | 226° |
| 2026-05-04 17:58 | 21.91393 | 20.14778 | 40076 ft | 451 kts | 226° |
| 2026-05-04 17:59 | 21.86573 | 20.10408 | 40081 ft | 452 kts | 226° |
| 2026-05-04 18:00 | 21.79347 | 20.03863 | 40080 ft | 450 kts | 226° |
| 2026-05-04 18:00 | 21.74543 | 19.99517 | 40076 ft | 451 kts | 226° |
| 2026-05-04 18:01 | 21.69720 | 19.95158 | 40081 ft | 451 kts | 226° |
| 2026-05-04 18:01 | 21.64923 | 19.90826 | 40091 ft | 450 kts | 226° |
| 2026-05-04 18:02 | 21.57891 | 19.84151 | 40083 ft | 444 kts | 234° |
| 2026-05-04 18:02 | 21.53980 | 19.79077 | 40093 ft | 441 kts | 236° |
| 2026-05-04 18:03 | 21.50068 | 19.73953 | 40084 ft | 441 kts | 236° |
| 2026-05-04 18:03 | 21.46170 | 19.68866 | 40102 ft | 442 kts | 236° |
| 2026-05-04 18:04 | 21.42248 | 19.63761 | 40108 ft | 443 kts | 236° |
| 2026-05-04 18:05 | 21.36348 | 19.56099 | 40108 ft | 442 kts | 236° |
| 2026-05-04 18:05 | 21.32408 | 19.50989 | 40118 ft | 443 kts | 236° |
| 2026-05-04 18:06 | 21.26508 | 19.43348 | 40110 ft | 443 kts | 236° |
| 2026-05-04 18:06 | 21.22578 | 19.38266 | 40111 ft | 442 kts | 236° |
| 2026-05-04 18:07 | 21.18665 | 19.33210 | 40127 ft | 443 kts | 236° |
| 2026-05-04 18:07 | 21.14725 | 19.28123 | 40157 ft | 441 kts | 236° |
| 2026-05-04 18:08 | 21.10783 | 19.23039 | 40162 ft | 443 kts | 236° |
| 2026-05-04 18:08 | 21.06834 | 19.17950 | 40166 ft | 443 kts | 236° |
| 2026-05-04 18:09 | 20.98957 | 19.07814 | 40156 ft | 443 kts | 236° |
| 2026-05-04 18:10 | 20.95009 | 19.02741 | 40152 ft | 443 kts | 236° |
| 2026-05-04 18:10 | 20.91075 | 18.97691 | 40157 ft | 442 kts | 236° |
| 2026-05-04 18:11 | 20.87113 | 18.92608 | 40176 ft | 443 kts | 236° |
| 2026-05-04 18:11 | 20.83161 | 18.87543 | 40195 ft | 443 kts | 236° |
| 2026-05-04 18:12 | 20.79209 | 18.82483 | 40204 ft | 443 kts | 236° |
| 2026-05-04 18:12 | 20.75261 | 18.77433 | 40209 ft | 442 kts | 236° |
| 2026-05-04 18:13 | 20.71316 | 18.72391 | 40210 ft | 442 kts | 236° |
| 2026-05-04 18:14 | 20.65386 | 18.64820 | 40208 ft | 443 kts | 236° |
| 2026-05-04 18:14 | 20.61432 | 18.59776 | 40223 ft | 444 kts | 236° |
| 2026-05-04 18:15 | 20.53476 | 18.49645 | 40247 ft | 443 kts | 235° |
| 2026-05-04 18:16 | 20.49527 | 18.44622 | 40248 ft | 443 kts | 235° |
| 2026-05-04 18:16 | 20.45535 | 18.39549 | 40250 ft | 443 kts | 236° |
| 2026-05-04 18:17 | 20.39587 | 18.31999 | 40270 ft | 443 kts | 235° |
| 2026-05-04 18:18 | 20.33603 | 18.24414 | 40265 ft | 446 kts | 235° |
| 2026-05-04 18:18 | 20.29606 | 18.19353 | 40213 ft | 444 kts | 235° |
| 2026-05-04 18:19 | 20.23613 | 18.11771 | 40168 ft | 447 kts | 235° |
| 2026-05-04 18:19 | 20.19581 | 18.06677 | 40121 ft | 448 kts | 235° |
| 2026-05-04 18:20 | 20.15558 | 18.01599 | 40094 ft | 448 kts | 235° |
| 2026-05-04 18:20 | 20.11558 | 17.96554 | 40070 ft | 447 kts | 235° |
| 2026-05-04 18:21 | 20.07518 | 17.91464 | 40065 ft | 449 kts | 235° |
| 2026-05-04 18:21 | 20.03488 | 17.86392 | 40068 ft | 448 kts | 235° |
| 2026-05-04 18:22 | 19.99449 | 17.81310 | 40055 ft | 449 kts | 235° |
| 2026-05-04 18:22 | 19.95399 | 17.76221 | 40072 ft | 449 kts | 235° |
| 2026-05-04 18:23 | 19.91355 | 17.71142 | 40057 ft | 450 kts | 235° |
| 2026-05-04 18:23 | 19.87318 | 17.66078 | 40051 ft | 450 kts | 234° |
| 2026-05-04 18:24 | 19.83251 | 17.60980 | 40044 ft | 451 kts | 234° |
| 2026-05-04 18:24 | 19.79202 | 17.55909 | 40033 ft | 450 kts | 235° |
| 2026-05-04 18:25 | 19.75145 | 17.50832 | 40025 ft | 449 kts | 235° |
| 2026-05-04 18:25 | 19.71079 | 17.45748 | 40009 ft | 452 kts | 234° |
| 2026-05-04 18:26 | 19.67026 | 17.40686 | 39993 ft | 450 kts | 235° |
| 2026-05-04 18:26 | 19.62957 | 17.35608 | 39984 ft | 450 kts | 234° |
| 2026-05-04 18:27 | 19.58878 | 17.30520 | 39991 ft | 451 kts | 234° |
| 2026-05-04 18:27 | 19.54813 | 17.25456 | 39985 ft | 452 kts | 234° |
| 2026-05-04 18:28 | 19.50739 | 17.20384 | 39979 ft | 452 kts | 234° |
| 2026-05-04 18:28 | 19.46676 | 17.15330 | 39973 ft | 452 kts | 234° |
| 2026-05-04 18:29 | 19.42576 | 17.10235 | 39970 ft | 452 kts | 234° |
| 2026-05-04 18:29 | 19.38495 | 17.05168 | 39967 ft | 452 kts | 234° |
| 2026-05-04 18:30 | 19.32355 | 16.97552 | 39960 ft | 452 kts | 234° |
| 2026-05-04 18:31 | 19.28285 | 16.92508 | 39958 ft | 452 kts | 234° |
| 2026-05-04 18:31 | 19.24182 | 16.87428 | 39949 ft | 452 kts | 233° |
| 2026-05-04 18:32 | 19.20069 | 16.82341 | 39946 ft | 453 kts | 233° |
| 2026-05-04 18:32 | 19.15969 | 16.77272 | 39944 ft | 454 kts | 234° |
| 2026-05-04 18:33 | 19.11860 | 16.72198 | 39929 ft | 453 kts | 234° |
| 2026-05-04 18:33 | 19.07748 | 16.67124 | 39922 ft | 454 kts | 233° |
| 2026-05-04 18:34 | 19.03638 | 16.62058 | 39922 ft | 453 kts | 234° |
| 2026-05-04 18:34 | 18.99525 | 16.56990 | 39919 ft | 454 kts | 233° |
| 2026-05-04 18:35 | 18.95430 | 16.51951 | 39918 ft | 454 kts | 234° |
| 2026-05-04 18:35 | 18.91310 | 16.46883 | 39911 ft | 454 kts | 234° |
| 2026-05-04 18:36 | 18.87179 | 16.41806 | 39906 ft | 454 kts | 233° |
| 2026-05-04 18:36 | 18.83040 | 16.36725 | 39902 ft | 454 kts | 234° |
| 2026-05-04 18:37 | 18.78892 | 16.31636 | 39914 ft | 455 kts | 233° |
| 2026-05-04 18:37 | 18.74768 | 16.26581 | 39910 ft | 454 kts | 233° |
| 2026-05-04 18:38 | 18.70652 | 16.21540 | 39904 ft | 455 kts | 233° |
| 2026-05-04 18:38 | 18.66487 | 16.16442 | 39903 ft | 455 kts | 233° |
| 2026-05-04 18:39 | 18.62355 | 16.11389 | 39901 ft | 455 kts | 233° |
| 2026-05-04 18:39 | 18.58221 | 16.06340 | 39897 ft | 455 kts | 233° |
| 2026-05-04 18:40 | 18.54102 | 16.01310 | 39893 ft | 455 kts | 233° |
| 2026-05-04 18:40 | 18.49939 | 15.96233 | 39885 ft | 456 kts | 233° |
| 2026-05-04 18:41 | 18.45806 | 15.91197 | 39885 ft | 456 kts | 233° |
| 2026-05-04 18:41 | 18.41655 | 15.86144 | 39886 ft | 455 kts | 233° |
| 2026-05-04 18:42 | 18.37500 | 15.81089 | 39880 ft | 456 kts | 233° |
| 2026-05-04 18:42 | 18.33335 | 15.76027 | 39882 ft | 455 kts | 233° |
| 2026-05-04 18:43 | 18.29179 | 15.70979 | 39880 ft | 455 kts | 233° |
| 2026-05-04 18:43 | 18.25027 | 15.65941 | 39878 ft | 454 kts | 233° |
| 2026-05-04 18:44 | 18.20901 | 15.60937 | 39878 ft | 455 kts | 233° |
| 2026-05-04 18:44 | 18.16744 | 15.55901 | 39877 ft | 455 kts | 233° |
| 2026-05-04 18:45 | 18.12596 | 15.50878 | 39877 ft | 455 kts | 233° |
| 2026-05-04 18:45 | 18.08417 | 15.45823 | 39874 ft | 455 kts | 233° |
| 2026-05-04 18:46 | 18.04258 | 15.40795 | 39872 ft | 454 kts | 233° |
| 2026-05-04 18:46 | 18.00106 | 15.35779 | 39873 ft | 454 kts | 232° |
| 2026-05-04 18:47 | 17.95968 | 15.30786 | 39887 ft | 455 kts | 232° |
| 2026-05-04 18:47 | 17.91795 | 15.25753 | 39882 ft | 455 kts | 232° |
| 2026-05-04 18:48 | 17.87617 | 15.20719 | 39882 ft | 454 kts | 232° |
| 2026-05-04 18:48 | 17.83462 | 15.15715 | 39880 ft | 455 kts | 233° |
| 2026-05-04 18:49 | 17.79293 | 15.10700 | 39878 ft | 455 kts | 233° |
| 2026-05-04 18:49 | 17.75138 | 15.05705 | 39871 ft | 455 kts | 232° |
| 2026-05-04 18:50 | 17.70966 | 15.00693 | 39875 ft | 454 kts | 232° |
| 2026-05-04 18:50 | 17.66813 | 14.95708 | 39875 ft | 454 kts | 232° |
| 2026-05-04 18:51 | 17.62614 | 14.90670 | 39872 ft | 456 kts | 232° |
| 2026-05-04 18:51 | 17.58439 | 14.85666 | 39868 ft | 456 kts | 232° |
| 2026-05-04 18:52 | 17.54249 | 14.80649 | 39872 ft | 456 kts | 232° |
| 2026-05-04 18:52 | 17.50059 | 14.75633 | 39871 ft | 457 kts | 233° |
| 2026-05-04 18:53 | 17.45869 | 14.70623 | 39870 ft | 457 kts | 233° |
| 2026-05-04 18:53 | 17.41675 | 14.65612 | 39871 ft | 458 kts | 233° |
| 2026-05-04 18:54 | 17.37455 | 14.60574 | 39869 ft | 459 kts | 233° |
| 2026-05-04 18:54 | 17.33258 | 14.55566 | 39873 ft | 458 kts | 233° |
| 2026-05-04 18:55 | 17.29025 | 14.50519 | 39873 ft | 459 kts | 232° |
| 2026-05-04 18:55 | 17.22713 | 14.43002 | 39875 ft | 460 kts | 233° |
| 2026-05-04 18:56 | 17.18491 | 14.37978 | 39873 ft | 459 kts | 233° |
| 2026-05-04 18:56 | 17.14249 | 14.32934 | 39887 ft | 460 kts | 232° |
| 2026-05-04 18:57 | 17.09985 | 14.27868 | 39884 ft | 461 kts | 232° |
| 2026-05-04 18:57 | 17.05769 | 14.22862 | 39882 ft | 461 kts | 232° |
| 2026-05-04 18:58 | 17.01538 | 14.17843 | 39886 ft | 461 kts | 232° |
| 2026-05-04 18:58 | 16.97279 | 14.12793 | 39883 ft | 463 kts | 232° |
| 2026-05-04 18:59 | 16.93018 | 14.07746 | 39883 ft | 461 kts | 232° |
| 2026-05-04 18:59 | 16.88754 | 14.02698 | 39879 ft | 462 kts | 232° |
| 2026-05-04 19:00 | 16.84505 | 13.97673 | 39878 ft | 462 kts | 232° |
| 2026-05-04 19:00 | 16.80252 | 13.92646 | 39878 ft | 461 kts | 232° |
| 2026-05-04 19:01 | 16.75994 | 13.87616 | 39877 ft | 463 kts | 232° |
| 2026-05-04 19:01 | 16.71726 | 13.82579 | 39876 ft | 463 kts | 232° |
| 2026-05-04 19:02 | 16.67447 | 13.77532 | 39877 ft | 462 kts | 232° |
| 2026-05-04 19:02 | 16.63194 | 13.72521 | 39876 ft | 463 kts | 232° |
| 2026-05-04 19:03 | 16.58933 | 13.67502 | 39874 ft | 463 kts | 232° |
| 2026-05-04 19:03 | 16.54652 | 13.62465 | 39873 ft | 463 kts | 232° |
| 2026-05-04 19:04 | 16.50356 | 13.57412 | 39872 ft | 464 kts | 232° |
| 2026-05-04 19:04 | 16.46075 | 13.52382 | 39874 ft | 464 kts | 232° |
| 2026-05-04 19:05 | 16.41803 | 13.47365 | 39870 ft | 464 kts | 232° |
| 2026-05-04 19:05 | 16.37505 | 13.42323 | 39866 ft | 464 kts | 232° |
| 2026-05-04 19:06 | 16.33213 | 13.37289 | 39867 ft | 464 kts | 232° |
| 2026-05-04 19:06 | 16.28900 | 13.32236 | 39877 ft | 466 kts | 231° |
| 2026-05-04 19:07 | 16.24612 | 13.27215 | 39874 ft | 465 kts | 231° |
| 2026-05-04 19:07 | 16.20304 | 13.22176 | 39872 ft | 466 kts | 231° |
| 2026-05-04 19:08 | 16.15983 | 13.17123 | 39869 ft | 466 kts | 232° |
| 2026-05-04 19:08 | 16.11675 | 13.12089 | 39870 ft | 466 kts | 231° |
| 2026-05-04 19:09 | 16.07351 | 13.07042 | 39867 ft | 465 kts | 231° |
| 2026-05-04 19:09 | 16.03048 | 13.02021 | 39860 ft | 466 kts | 231° |
| 2026-05-04 19:10 | 15.99427 | 12.97799 | 39861 ft | 467 kts | 231° |
| 2026-05-04 19:10 | 15.94374 | 12.91911 | 39859 ft | 467 kts | 231° |
| 2026-05-04 19:11 | 15.90046 | 12.86873 | 39854 ft | 467 kts | 231° |
| 2026-05-04 19:11 | 15.85722 | 12.81842 | 39856 ft | 467 kts | 231° |
| 2026-05-04 19:12 | 15.79217 | 12.74280 | 39851 ft | 466 kts | 231° |
| 2026-05-04 19:13 | 15.74884 | 12.69248 | 39852 ft | 467 kts | 231° |
| 2026-05-04 19:13 | 15.70547 | 12.64215 | 39845 ft | 467 kts | 231° |
| 2026-05-04 19:14 | 15.66210 | 12.59185 | 39844 ft | 467 kts | 231° |
| 2026-05-04 19:14 | 15.61878 | 12.54164 | 39839 ft | 467 kts | 231° |
| 2026-05-04 19:15 | 15.57538 | 12.49137 | 39838 ft | 467 kts | 231° |
| 2026-05-04 19:15 | 15.52483 | 12.43287 | 39825 ft | 467 kts | 231° |
| 2026-05-04 19:16 | 15.48857 | 12.39093 | 39832 ft | 467 kts | 231° |
| 2026-05-04 19:16 | 15.44513 | 12.34073 | 39836 ft | 468 kts | 231° |
| 2026-05-04 19:17 | 15.40154 | 12.29037 | 39843 ft | 468 kts | 231° |
| 2026-05-04 19:17 | 15.35818 | 12.24032 | 39836 ft | 468 kts | 231° |
| 2026-05-04 19:18 | 15.31458 | 12.19003 | 39833 ft | 469 kts | 231° |
| 2026-05-04 19:18 | 15.27067 | 12.13941 | 39841 ft | 468 kts | 231° |
| 2026-05-04 19:19 | 15.22731 | 12.08947 | 39830 ft | 468 kts | 231° |
| 2026-05-04 19:19 | 15.18376 | 12.03934 | 39838 ft | 468 kts | 231° |
| 2026-05-04 19:20 | 15.14007 | 11.98907 | 39835 ft | 468 kts | 231° |
| 2026-05-04 19:20 | 15.09641 | 11.93889 | 39829 ft | 467 kts | 231° |
| 2026-05-04 19:21 | 15.05300 | 11.88901 | 39835 ft | 468 kts | 231° |
| 2026-05-04 19:21 | 15.00902 | 11.83852 | 39840 ft | 469 kts | 231° |
| 2026-05-04 19:22 | 14.96538 | 11.78844 | 39846 ft | 469 kts | 231° |
| 2026-05-04 19:22 | 14.92171 | 11.73837 | 39845 ft | 470 kts | 231° |
| 2026-05-04 19:23 | 14.87776 | 11.68801 | 39847 ft | 470 kts | 231° |
| 2026-05-04 19:23 | 14.83408 | 11.63800 | 39846 ft | 470 kts | 231° |
| 2026-05-04 19:24 | 14.79037 | 11.58798 | 39854 ft | 470 kts | 231° |
| 2026-05-04 19:24 | 14.74641 | 11.53771 | 39857 ft | 470 kts | 231° |
| 2026-05-04 19:25 | 14.70247 | 11.48749 | 39862 ft | 469 kts | 231° |
| 2026-05-04 19:25 | 14.65876 | 11.43756 | 39867 ft | 470 kts | 231° |
| 2026-05-04 19:26 | 14.61494 | 11.38755 | 39867 ft | 470 kts | 231° |
| 2026-05-04 19:26 | 14.57113 | 11.33757 | 39878 ft | 471 kts | 230° |
| 2026-05-04 19:27 | 14.52714 | 11.28744 | 39882 ft | 470 kts | 230° |
| 2026-05-04 19:27 | 14.48320 | 11.23738 | 39885 ft | 470 kts | 230° |
| 2026-05-04 19:28 | 14.43914 | 11.18721 | 39881 ft | 469 kts | 230° |
| 2026-05-04 19:28 | 14.39531 | 11.13735 | 39878 ft | 471 kts | 230° |
| 2026-05-04 19:29 | 14.35128 | 11.08728 | 39879 ft | 471 kts | 230° |
| 2026-05-04 19:29 | 14.30708 | 11.03706 | 39875 ft | 470 kts | 230° |
| 2026-05-04 19:30 | 14.26311 | 10.98713 | 39873 ft | 471 kts | 230° |
| 2026-05-04 19:30 | 14.21906 | 10.93714 | 39871 ft | 470 kts | 230° |
| 2026-05-04 19:31 | 14.17488 | 10.88703 | 39868 ft | 471 kts | 231° |
| 2026-05-04 19:31 | 14.13105 | 10.83735 | 39863 ft | 472 kts | 230° |
| 2026-05-04 19:32 | 14.08677 | 10.78720 | 39859 ft | 471 kts | 230° |
| 2026-05-04 19:32 | 14.04269 | 10.73730 | 39856 ft | 470 kts | 230° |
| 2026-05-04 19:33 | 13.99853 | 10.68739 | 39847 ft | 472 kts | 229° |
| 2026-05-04 19:33 | 13.94748 | 10.64382 | 39852 ft | 477 kts | 219° |
| 2026-05-04 19:34 | 13.89370 | 10.60375 | 39848 ft | 476 kts | 219° |
| 2026-05-04 19:34 | 13.83981 | 10.56377 | 39846 ft | 477 kts | 219° |
| 2026-05-04 19:35 | 13.78584 | 10.52382 | 39843 ft | 476 kts | 219° |
| 2026-05-04 19:35 | 13.73149 | 10.48365 | 39841 ft | 477 kts | 219° |
| 2026-05-04 19:36 | 13.67769 | 10.44394 | 39845 ft | 478 kts | 219° |
| 2026-05-04 19:36 | 13.62369 | 10.40410 | 39844 ft | 478 kts | 219° |
| 2026-05-04 19:37 | 13.56939 | 10.36407 | 39841 ft | 479 kts | 219° |
| 2026-05-04 19:37 | 13.51478 | 10.32385 | 39848 ft | 480 kts | 219° |
| 2026-05-04 19:38 | 13.46055 | 10.28393 | 39844 ft | 479 kts | 219° |
| 2026-05-04 19:38 | 13.40616 | 10.24392 | 39844 ft | 480 kts | 219° |
| 2026-05-04 19:39 | 13.35163 | 10.20382 | 39843 ft | 479 kts | 219° |
| 2026-05-04 19:39 | 13.29750 | 10.16404 | 39843 ft | 479 kts | 219° |
| 2026-05-04 19:40 | 13.24317 | 10.12414 | 39840 ft | 480 kts | 219° |
| 2026-05-04 19:40 | 13.18861 | 10.08409 | 39837 ft | 481 kts | 219° |
| 2026-05-04 19:41 | 13.13408 | 10.04409 | 39834 ft | 481 kts | 219° |
| 2026-05-04 19:41 | 13.07940 | 10.00399 | 39831 ft | 481 kts | 219° |
| 2026-05-04 19:42 | 13.02476 | 9.96396 | 39832 ft | 482 kts | 219° |
| 2026-05-04 19:42 | 12.97004 | 9.92388 | 39828 ft | 482 kts | 219° |
| 2026-05-04 19:43 | 12.91525 | 9.88377 | 39831 ft | 483 kts | 218° |
| 2026-05-04 19:43 | 12.86062 | 9.84381 | 39835 ft | 482 kts | 219° |
| 2026-05-04 19:44 | 12.80595 | 9.80384 | 39835 ft | 482 kts | 219° |
| 2026-05-04 19:44 | 12.75116 | 9.76379 | 39833 ft | 482 kts | 219° |
| 2026-05-04 19:45 | 12.69627 | 9.72370 | 39835 ft | 482 kts | 219° |
| 2026-05-04 19:45 | 12.64157 | 9.68378 | 39837 ft | 482 kts | 219° |
| 2026-05-04 19:46 | 12.58679 | 9.64380 | 39836 ft | 482 kts | 219° |
| 2026-05-04 19:46 | 12.53184 | 9.60373 | 39838 ft | 483 kts | 218° |
| 2026-05-04 19:47 | 12.47683 | 9.56364 | 39839 ft | 483 kts | 219° |
| 2026-05-04 19:47 | 12.42195 | 9.52366 | 39838 ft | 483 kts | 218° |
| 2026-05-04 19:48 | 12.36723 | 9.48382 | 39837 ft | 483 kts | 218° |
| 2026-05-04 19:48 | 12.31200 | 9.44364 | 39837 ft | 484 kts | 218° |
| 2026-05-04 19:49 | 12.25708 | 9.40370 | 39840 ft | 484 kts | 218° |
| 2026-05-04 19:49 | 12.20190 | 9.36359 | 39841 ft | 484 kts | 218° |
| 2026-05-04 19:50 | 12.14676 | 9.32352 | 39847 ft | 486 kts | 218° |
| 2026-05-04 19:50 | 12.09158 | 9.28345 | 39849 ft | 485 kts | 218° |
| 2026-05-04 19:51 | 12.03632 | 9.24334 | 39846 ft | 485 kts | 218° |
| 2026-05-04 19:51 | 11.98110 | 9.20329 | 39845 ft | 486 kts | 218° |
| 2026-05-04 19:52 | 11.92581 | 9.16320 | 39851 ft | 487 kts | 218° |
| 2026-05-04 19:52 | 11.87056 | 9.12317 | 39849 ft | 486 kts | 218° |
| 2026-05-04 19:53 | 11.81522 | 9.08308 | 39853 ft | 486 kts | 218° |
| 2026-05-04 19:53 | 11.75940 | 9.04268 | 39854 ft | 487 kts | 218° |
| 2026-05-04 19:54 | 11.70429 | 9.00280 | 39860 ft | 488 kts | 218° |
| 2026-05-04 19:54 | 11.64845 | 8.96242 | 39860 ft | 488 kts | 218° |
| 2026-05-04 19:55 | 11.59303 | 8.92236 | 39862 ft | 488 kts | 218° |
| 2026-05-04 19:55 | 11.53749 | 8.88223 | 39869 ft | 488 kts | 218° |
| 2026-05-04 19:56 | 11.48179 | 8.84201 | 39876 ft | 488 kts | 218° |
| 2026-05-04 19:56 | 11.42623 | 8.80191 | 39883 ft | 488 kts | 218° |
| 2026-05-04 19:57 | 11.37030 | 8.76156 | 39890 ft | 489 kts | 218° |
| 2026-05-04 19:57 | 11.31481 | 8.72155 | 39897 ft | 489 kts | 218° |
| 2026-05-04 19:58 | 11.25912 | 8.68142 | 39904 ft | 488 kts | 218° |
| 2026-05-04 19:58 | 11.20304 | 8.64102 | 39910 ft | 489 kts | 218° |
| 2026-05-04 19:59 | 11.14733 | 8.60090 | 39916 ft | 490 kts | 218° |
| 2026-05-04 19:59 | 11.09155 | 8.56076 | 39919 ft | 489 kts | 218° |
| 2026-05-04 20:00 | 11.03581 | 8.52067 | 39926 ft | 490 kts | 218° |
| 2026-05-04 20:00 | 10.97071 | 8.47387 | 39934 ft | 490 kts | 218° |
| 2026-05-04 20:01 | 10.92435 | 8.44055 | 39935 ft | 490 kts | 218° |
| 2026-05-04 20:01 | 10.86831 | 8.40030 | 39934 ft | 490 kts | 218° |
| 2026-05-04 20:02 | 10.81256 | 8.36027 | 39940 ft | 490 kts | 218° |
| 2026-05-04 20:02 | 10.75676 | 8.32022 | 39941 ft | 490 kts | 217° |
| 2026-05-04 20:03 | 10.70081 | 8.28009 | 39942 ft | 490 kts | 217° |
| 2026-05-04 20:03 | 10.64498 | 8.24006 | 39938 ft | 490 kts | 217° |
| 2026-05-04 20:04 | 10.58922 | 8.20011 | 39940 ft | 490 kts | 217° |
| 2026-05-04 20:04 | 10.53312 | 8.15992 | 39943 ft | 490 kts | 217° |
| 2026-05-04 20:05 | 10.47718 | 8.11987 | 39946 ft | 490 kts | 217° |
| 2026-05-04 20:05 | 10.42117 | 8.07978 | 39942 ft | 490 kts | 217° |
| 2026-05-04 20:06 | 10.36529 | 8.03981 | 39949 ft | 490 kts | 217° |
| 2026-05-04 20:06 | 10.30954 | 7.99995 | 39946 ft | 490 kts | 217° |
| 2026-05-04 20:07 | 10.25374 | 7.96006 | 39944 ft | 491 kts | 217° |
| 2026-05-04 20:07 | 10.19759 | 7.91995 | 39957 ft | 490 kts | 217° |
| 2026-05-04 20:08 | 10.14177 | 7.88009 | 39961 ft | 490 kts | 217° |
| 2026-05-04 20:08 | 10.08586 | 7.84018 | 39962 ft | 490 kts | 217° |
| 2026-05-04 20:09 | 10.02979 | 7.80018 | 39963 ft | 490 kts | 217° |
| 2026-05-04 20:09 | 9.97383 | 7.76027 | 39959 ft | 490 kts | 217° |
| 2026-05-04 20:10 | 9.91794 | 7.72044 | 39958 ft | 490 kts | 217° |
| 2026-05-04 20:10 | 9.86199 | 7.68056 | 39950 ft | 489 kts | 217° |
| 2026-05-04 20:11 | 9.80600 | 7.64068 | 39946 ft | 490 kts | 217° |
| 2026-05-04 20:11 | 9.74984 | 7.60070 | 39936 ft | 490 kts | 217° |
| 2026-05-04 20:12 | 9.69403 | 7.56098 | 39929 ft | 490 kts | 217° |
| 2026-05-04 20:12 | 9.62870 | 7.51451 | 39916 ft | 490 kts | 217° |
| 2026-05-04 20:13 | 9.58172 | 7.48111 | 39913 ft | 491 kts | 217° |
| 2026-05-04 20:13 | 9.52519 | 7.44093 | 39912 ft | 489 kts | 217° |
| 2026-05-04 20:14 | 9.46934 | 7.40125 | 39906 ft | 491 kts | 217° |
| 2026-05-04 20:14 | 9.41343 | 7.36154 | 39905 ft | 490 kts | 217° |
| 2026-05-04 20:15 | 9.35749 | 7.32167 | 39895 ft | 490 kts | 219° |
| 2026-05-04 20:15 | 9.30573 | 7.27669 | 39898 ft | 488 kts | 223° |
| 2026-05-04 20:16 | 9.25467 | 7.23090 | 39886 ft | 489 kts | 223° |
| 2026-05-04 20:16 | 9.20365 | 7.18518 | 39874 ft | 488 kts | 223° |
| 2026-05-04 20:17 | 9.15265 | 7.13952 | 39860 ft | 489 kts | 223° |
| 2026-05-04 20:17 | 9.10169 | 7.09391 | 39852 ft | 489 kts | 223° |
| 2026-05-04 20:18 | 9.05067 | 7.04828 | 39842 ft | 489 kts | 223° |
| 2026-05-04 20:18 | 8.99947 | 7.00249 | 39835 ft | 490 kts | 223° |
| 2026-05-04 20:19 | 8.94849 | 6.95693 | 39833 ft | 489 kts | 223° |
| 2026-05-04 20:19 | 8.89709 | 6.91100 | 39833 ft | 490 kts | 223° |
| 2026-05-04 20:20 | 8.84582 | 6.86522 | 39830 ft | 490 kts | 223° |
| 2026-05-04 20:20 | 8.79484 | 6.81971 | 39826 ft | 490 kts | 223° |
| 2026-05-04 20:21 | 8.74335 | 6.77376 | 39824 ft | 492 kts | 223° |
| 2026-05-04 20:21 | 8.66641 | 6.70514 | 39820 ft | 492 kts | 223° |
| 2026-05-04 20:22 | 8.61514 | 6.65943 | 39820 ft | 492 kts | 223° |
| 2026-05-04 20:22 | 8.56360 | 6.61350 | 39821 ft | 493 kts | 223° |
| 2026-05-04 20:23 | 8.51200 | 6.56753 | 39817 ft | 493 kts | 223° |
| 2026-05-04 20:23 | 8.46030 | 6.52150 | 39819 ft | 493 kts | 223° |
| 2026-05-04 20:24 | 8.40927 | 6.47485 | 39821 ft | 493 kts | 229° |
| 2026-05-04 20:24 | 8.37009 | 6.41875 | 39841 ft | 490 kts | 242° |
| 2026-05-04 20:25 | 8.33729 | 6.35823 | 39850 ft | 491 kts | 243° |
| 2026-05-04 20:25 | 8.30467 | 6.29741 | 39870 ft | 490 kts | 243° |
| 2026-05-04 20:26 | 8.27215 | 6.23657 | 39898 ft | 491 kts | 243° |
| 2026-05-04 20:26 | 8.23972 | 6.17580 | 39902 ft | 491 kts | 243° |
| 2026-05-04 20:27 | 8.20737 | 6.11515 | 39899 ft | 491 kts | 243° |
| 2026-05-04 20:27 | 8.17479 | 6.05404 | 39890 ft | 491 kts | 243° |
| 2026-05-04 20:28 | 8.14246 | 5.99339 | 39905 ft | 492 kts | 243° |
| 2026-05-04 20:28 | 8.10988 | 5.93231 | 39909 ft | 492 kts | 243° |
| 2026-05-04 20:29 | 8.07745 | 5.87152 | 39920 ft | 492 kts | 243° |
| 2026-05-04 20:29 | 8.04495 | 5.81062 | 39924 ft | 492 kts | 243° |
| 2026-05-04 20:30 | 8.01264 | 5.75009 | 39929 ft | 492 kts | 243° |
| 2026-05-04 20:30 | 7.97995 | 5.68889 | 39932 ft | 492 kts | 243° |
| 2026-05-04 20:31 | 7.94763 | 5.62842 | 39919 ft | 492 kts | 243° |
| 2026-05-04 20:31 | 7.91488 | 5.56719 | 39923 ft | 492 kts | 243° |
| 2026-05-04 20:32 | 7.88243 | 5.50654 | 39925 ft | 492 kts | 243° |
| 2026-05-04 20:32 | 7.84990 | 5.44576 | 39929 ft | 492 kts | 243° |
| 2026-05-04 20:33 | 7.81736 | 5.38500 | 39932 ft | 492 kts | 243° |
| 2026-05-04 20:33 | 7.78468 | 5.32400 | 39939 ft | 492 kts | 243° |
| 2026-05-04 20:34 | 7.75205 | 5.26311 | 39940 ft | 492 kts | 243° |
| 2026-05-04 20:34 | 7.71962 | 5.20262 | 39942 ft | 492 kts | 243° |
| 2026-05-04 20:35 | 7.68695 | 5.14171 | 39938 ft | 492 kts | 243° |
| 2026-05-04 20:35 | 7.65450 | 5.08125 | 39943 ft | 492 kts | 243° |
| 2026-05-04 20:36 | 7.62174 | 5.02021 | 39940 ft | 491 kts | 243° |
| 2026-05-04 20:36 | 7.58916 | 4.95955 | 39940 ft | 491 kts | 243° |
| 2026-05-04 20:37 | 7.55678 | 4.89928 | 39932 ft | 491 kts | 243° |
| 2026-05-04 20:37 | 7.52399 | 4.83828 | 39928 ft | 492 kts | 243° |
| 2026-05-04 20:38 | 7.49141 | 4.77768 | 39918 ft | 491 kts | 243° |
| 2026-05-04 20:38 | 7.45874 | 4.71696 | 39910 ft | 492 kts | 243° |
| 2026-05-04 20:39 | 7.42621 | 4.65650 | 39901 ft | 491 kts | 243° |
| 2026-05-04 20:39 | 7.39357 | 4.59588 | 39895 ft | 491 kts | 243° |
| 2026-05-04 20:40 | 7.36102 | 4.53545 | 39892 ft | 491 kts | 243° |
| 2026-05-04 20:40 | 7.32839 | 4.47488 | 39889 ft | 491 kts | 243° |
| 2026-05-04 20:41 | 7.29558 | 4.41400 | 39889 ft | 492 kts | 243° |
| 2026-05-04 20:41 | 7.26283 | 4.35328 | 39888 ft | 492 kts | 243° |
| 2026-05-04 20:42 | 7.23017 | 4.29272 | 39891 ft | 492 kts | 243° |
| 2026-05-04 20:42 | 7.19758 | 4.23235 | 39889 ft | 492 kts | 243° |
| 2026-05-04 20:43 | 7.16472 | 4.17150 | 39884 ft | 492 kts | 243° |
| 2026-05-04 20:43 | 7.13210 | 4.11113 | 39877 ft | 491 kts | 243° |
| 2026-05-04 20:44 | 7.09946 | 4.05072 | 39869 ft | 492 kts | 243° |
| 2026-05-04 20:44 | 7.06650 | 3.98976 | 39863 ft | 493 kts | 243° |
| 2026-05-04 20:45 | 7.03377 | 3.92925 | 39865 ft | 493 kts | 243° |
| 2026-05-04 20:45 | 6.99532 | 3.85819 | 39862 ft | 493 kts | 243° |
| 2026-05-04 20:46 | 6.96780 | 3.80734 | 39860 ft | 494 kts | 243° |
| 2026-05-04 20:46 | 6.93495 | 3.74668 | 39855 ft | 495 kts | 243° |
| 2026-05-04 20:47 | 6.90198 | 3.68582 | 39857 ft | 495 kts | 243° |
| 2026-05-04 20:47 | 6.86895 | 3.62487 | 39856 ft | 495 kts | 243° |
| 2026-05-04 20:48 | 6.83592 | 3.56392 | 39857 ft | 495 kts | 243° |
| 2026-05-04 20:48 | 6.80274 | 3.50274 | 39860 ft | 495 kts | 243° |
| 2026-05-04 20:49 | 6.76971 | 3.44186 | 39865 ft | 496 kts | 243° |
| 2026-05-04 20:49 | 6.73654 | 3.38074 | 39872 ft | 496 kts | 243° |
| 2026-05-04 20:50 | 6.70492 | 3.31888 | 39880 ft | 495 kts | 249° |
| 2026-05-04 20:50 | 6.68034 | 3.25420 | 39868 ft | 495 kts | 250° |
| 2026-05-04 20:51 | 6.65612 | 3.18941 | 39868 ft | 495 kts | 251° |
| 2026-05-04 20:51 | 6.63180 | 3.12436 | 39874 ft | 495 kts | 251° |
| 2026-05-04 20:52 | 6.60753 | 3.05948 | 39865 ft | 495 kts | 250° |
| 2026-05-04 20:52 | 6.58331 | 2.99471 | 39852 ft | 496 kts | 250° |
| 2026-05-04 20:53 | 6.55897 | 2.92966 | 39848 ft | 495 kts | 251° |
| 2026-05-04 20:53 | 6.53077 | 2.85432 | 39853 ft | 496 kts | 250° |
| 2026-05-04 20:54 | 6.51042 | 2.79997 | 39854 ft | 495 kts | 250° |
| 2026-05-04 20:54 | 6.48626 | 2.73535 | 39852 ft | 495 kts | 251° |
| 2026-05-04 20:55 | 6.46268 | 2.67034 | 39851 ft | 494 kts | 251° |
| 2026-05-04 20:55 | 6.43508 | 2.59416 | 39862 ft | 494 kts | 251° |
| 2026-05-04 20:56 | 6.41542 | 2.54000 | 39858 ft | 494 kts | 251° |
| 2026-05-04 20:56 | 6.39179 | 2.47493 | 39872 ft | 494 kts | 251° |
| 2026-05-04 20:57 | 6.36826 | 2.40980 | 39865 ft | 493 kts | 253° |
| 2026-05-04 20:57 | 6.35436 | 2.34281 | 39876 ft | 493 kts | 262° |
| 2026-05-04 20:58 | 6.34352 | 2.27445 | 39869 ft | 492 kts | 262° |
| 2026-05-04 20:58 | 6.33278 | 2.20651 | 39865 ft | 492 kts | 262° |
| 2026-05-04 20:59 | 6.32204 | 2.13851 | 39858 ft | 492 kts | 262° |
| 2026-05-04 20:59 | 6.31128 | 2.07036 | 39858 ft | 492 kts | 262° |
| 2026-05-04 21:00 | 6.30064 | 2.00301 | 39861 ft | 493 kts | 262° |
| 2026-05-04 21:00 | 6.28984 | 1.93472 | 39864 ft | 492 kts | 261° |
| 2026-05-04 21:01 | 6.27917 | 1.86727 | 39860 ft | 492 kts | 262° |
| 2026-05-04 21:01 | 6.26658 | 1.78776 | 39862 ft | 491 kts | 262° |
| 2026-05-04 21:02 | 6.25772 | 1.73189 | 39553 ft | 482 kts | 262° |
| 2026-05-04 21:02 | 6.25251 | 1.69907 | 38404 ft | 483 kts | 262° |
| 2026-05-04 21:02 | 6.24721 | 1.66563 | 37231 ft | 485 kts | 262° |
| 2026-05-04 21:03 | 6.24013 | 1.62102 | 35965 ft | 484 kts | 262° |
| 2026-05-04 21:03 | 6.23659 | 1.59875 | 35351 ft | 483 kts | 262° |
| 2026-05-04 21:03 | 6.23136 | 1.56584 | 34390 ft | 483 kts | 262° |
| 2026-05-04 21:03 | 6.22609 | 1.53263 | 33407 ft | 483 kts | 262° |
| 2026-05-04 21:04 | 6.22334 | 1.51534 | 32891 ft | 483 kts | 262° |
| 2026-05-04 21:05 | 6.21847 | 1.48474 | 32187 ft | 480 kts | 262° |
| 2026-05-04 21:05 | 6.21151 | 1.44099 | 31583 ft | 468 kts | 262° |
| 2026-05-04 21:05 | 6.20813 | 1.41980 | 31264 ft | 466 kts | 262° |
| 2026-05-04 21:06 | 6.20294 | 1.38712 | 30727 ft | 480 kts | 262° |
| 2026-05-04 21:06 | 6.19767 | 1.35401 | 30115 ft | 480 kts | 262° |
| 2026-05-04 21:06 | 6.19238 | 1.32083 | 29435 ft | 477 kts | 261° |
| 2026-05-04 21:06 | 6.18695 | 1.28825 | 28784 ft | 473 kts | 258° |
| 2026-05-04 21:07 | 6.17366 | 1.24645 | 27988 ft | 466 kts | 248° |
| 2026-05-04 21:07 | 6.16528 | 1.22650 | 27588 ft | 464 kts | 247° |
| 2026-05-04 21:07 | 6.14849 | 1.18736 | 26774 ft | 459 kts | 247° |
| 2026-05-04 21:07 | 6.14001 | 1.16768 | 26362 ft | 457 kts | 247° |
| 2026-05-04 21:08 | 6.12742 | 1.13850 | 25754 ft | 453 kts | 247° |
| 2026-05-04 21:08 | 6.11499 | 1.10973 | 25139 ft | 450 kts | 246° |
| 2026-05-04 21:08 | 6.09847 | 1.07158 | 24325 ft | 446 kts | 246° |
| 2026-05-04 21:08 | 6.08605 | 1.04289 | 23703 ft | 444 kts | 246° |
| 2026-05-04 21:09 | 6.07385 | 1.01474 | 23084 ft | 441 kts | 246° |
| 2026-05-04 21:09 | 6.06174 | 0.98639 | 22470 ft | 438 kts | 249° |
| 2026-05-04 21:09 | 6.05461 | 0.96755 | 22062 ft | 437 kts | 250° |
| 2026-05-04 21:09 | 6.04070 | 0.92973 | 21237 ft | 434 kts | 250° |
| 2026-05-04 21:10 | 6.03373 | 0.91083 | 20832 ft | 432 kts | 250° |
| 2026-05-04 21:10 | 6.01985 | 0.87334 | 20013 ft | 430 kts | 250° |
| 2026-05-04 21:10 | 6.01283 | 0.85443 | 19594 ft | 429 kts | 250° |
| 2026-05-04 21:10 | 5.99901 | 0.81727 | 18764 ft | 426 kts | 250° |
| 2026-05-04 21:11 | 5.98916 | 0.78925 | 18141 ft | 424 kts | 255° |
| 2026-05-04 21:11 | 5.98484 | 0.77024 | 17737 ft | 422 kts | 260° |
| 2026-05-04 21:11 | 5.97992 | 0.74139 | 17140 ft | 420 kts | 262° |
| 2026-05-04 21:11 | 5.97363 | 0.70289 | 16328 ft | 419 kts | 261° |
| 2026-05-04 21:12 | 5.96895 | 0.67415 | 15721 ft | 417 kts | 261° |
| 2026-05-04 21:12 | 5.96426 | 0.64538 | 15088 ft | 416 kts | 261° |
| 2026-05-04 21:12 | 5.96115 | 0.62626 | 14673 ft | 415 kts | 261° |
| 2026-05-04 21:12 | 5.95653 | 0.59793 | 14069 ft | 414 kts | 261° |
| 2026-05-04 21:13 | 5.95034 | 0.55989 | 13250 ft | 412 kts | 261° |
| 2026-05-04 21:13 | 5.94572 | 0.53150 | 12625 ft | 411 kts | 261° |
| 2026-05-04 21:13 | 5.94116 | 0.50353 | 12008 ft | 409 kts | 261° |
| 2026-05-04 21:13 | 5.93660 | 0.47552 | 11418 ft | 407 kts | 261° |
| 2026-05-04 21:14 | 5.93357 | 0.45693 | 11011 ft | 405 kts | 261° |
| 2026-05-04 21:14 | 5.92901 | 0.42896 | 10451 ft | 401 kts | 261° |
| 2026-05-04 21:14 | 5.92462 | 0.40203 | 10355 ft | 384 kts | 261° |
| 2026-05-04 21:14 | 5.91902 | 0.36770 | 10248 ft | 364 kts | 261° |
| 2026-05-04 21:15 | 5.91498 | 0.34294 | 10108 ft | 352 kts | 261° |
| 2026-05-04 21:15 | 5.91235 | 0.32680 | 9998 ft | 345 kts | 261° |
| 2026-05-04 21:15 | 5.90729 | 0.29576 | 9795 ft | 333 kts | 261° |
| 2026-05-04 21:15 | 5.90353 | 0.27275 | 9419 ft | 333 kts | 261° |
| 2026-05-04 21:16 | 5.89980 | 0.24985 | 9165 ft | 326 kts | 261° |
| 2026-05-04 21:16 | 5.89616 | 0.22757 | 8769 ft | 323 kts | 261° |
| 2026-05-04 21:16 | 5.89255 | 0.20543 | 8335 ft | 325 kts | 261° |
| 2026-05-04 21:16 | 5.88891 | 0.18319 | 8210 ft | 315 kts | 261° |
| 2026-05-04 21:17 | 5.88534 | 0.16131 | 7721 ft | 320 kts | 261° |
| 2026-05-04 21:17 | 5.88299 | 0.14691 | 7622 ft | 314 kts | 262° |
| 2026-05-04 21:17 | 5.87831 | 0.11832 | 7150 ft | 314 kts | 262° |
| 2026-05-04 21:17 | 5.87481 | 0.09695 | 6975 ft | 305 kts | 262° |
| 2026-05-04 21:18 | 5.87143 | 0.07629 | 6951 ft | 292 kts | 262° |
| 2026-05-04 21:18 | 5.86817 | 0.05633 | 6769 ft | 287 kts | 262° |
| 2026-05-04 21:18 | 5.86495 | 0.03665 | 6525 ft | 284 kts | 262° |
| 2026-05-04 21:18 | 5.86174 | 0.01705 | 6280 ft | 281 kts | 262° |
| 2026-05-04 21:19 | 5.85856 | -0.00239 | 6027 ft | 279 kts | 262° |
| 2026-05-04 21:19 | 5.85647 | -0.01517 | 5859 ft | 278 kts | 262° |
| 2026-05-04 21:19 | 5.85231 | -0.04058 | 5510 ft | 276 kts | 262° |
| 2026-05-04 21:19 | 5.84919 | -0.05959 | 5277 ft | 273 kts | 261° |
| 2026-05-04 21:20 | 5.84715 | -0.07203 | 5117 ft | 272 kts | 261° |
| 2026-05-04 21:20 | 5.84414 | -0.09053 | 5093 ft | 261 kts | 261° |
| 2026-05-04 21:20 | 5.84037 | -0.11389 | 5081 ft | 245 kts | 263° |
| 2026-05-04 21:20 | 5.84173 | -0.13014 | 5060 ft | 231 kts | 294° |
| 2026-05-04 21:21 | 5.85097 | -0.14250 | 5035 ft | 214 kts | 328° |
| 2026-05-04 21:21 | 5.86439 | -0.14722 | 4935 ft | 203 kts | 0° |
| 2026-05-04 21:21 | 5.87427 | -0.14596 | 4747 ft | 230 kts | 19° |
| 2026-05-04 21:21 | 5.89028 | -0.13129 | 4168 ft | 244 kts | 68° |
| 2026-05-04 21:22 | 5.89087 | -0.11474 | 3963 ft | 233 kts | 108° |
| 2026-05-04 21:22 | 5.88138 | -0.10268 | 3901 ft | 220 kts | 147° |
| 2026-05-04 21:22 | 5.86703 | -0.09896 | 3855 ft | 207 kts | 175° |
| 2026-05-04 21:22 | 5.85302 | -0.09871 | 3816 ft | 195 kts | 178° |
| 2026-05-04 21:23 | 5.83974 | -0.09859 | 3768 ft | 186 kts | 178° |
| 2026-05-04 21:23 | 5.82662 | -0.09847 | 3714 ft | 184 kts | 178° |
| 2026-05-04 21:23 | 5.81382 | -0.09835 | 3658 ft | 183 kts | 178° |
| 2026-05-04 21:23 | 5.80089 | -0.09823 | 3600 ft | 183 kts | 178° |
| 2026-05-04 21:24 | 5.78814 | -0.09749 | 3541 ft | 181 kts | 173° |
| 2026-05-04 21:24 | 5.77549 | -0.09825 | 3460 ft | 185 kts | 192° |
| 2026-05-04 21:24 | 5.76318 | -0.10266 | 3212 ft | 188 kts | 201° |
| 2026-05-04 21:24 | 5.75507 | -0.10607 | 3050 ft | 189 kts | 201° |
| 2026-05-04 21:25 | 5.73871 | -0.11284 | 2716 ft | 192 kts | 201° |
| 2026-05-04 21:25 | 5.72620 | -0.11795 | 2456 ft | 194 kts | 201° |
| 2026-05-04 21:25 | 5.71408 | -0.12288 | 2210 ft | 180 kts | 200° |
| 2026-05-04 21:25 | 5.70247 | -0.12757 | 1990 ft | 177 kts | 200° |
| 2026-05-04 21:26 | 5.69098 | -0.13227 | 1758 ft | 175 kts | 200° |
| 2026-05-04 21:26 | 5.67983 | -0.13682 | 1528 ft | 168 kts | 200° |
| 2026-05-04 21:26 | 5.66906 | -0.14120 | 1310 ft | 162 kts | 200° |
| 2026-05-04 21:26 | 5.65917 | -0.14523 | 1106 ft | 146 kts | 200° |
| 2026-05-04 21:27 | 5.64957 | -0.14905 | 954 ft | 147 kts | 198° |
| 2026-05-04 21:27 | 5.63981 | -0.15238 | 742 ft | 142 kts | 198° |
| 2026-05-04 21:27 | 5.63386 | -0.15491 | 618 ft | 141 kts | 207° |
| 2026-05-04 21:27 | 5.62188 | -0.16051 | 394 ft | 141 kts | 198° |
| 2026-05-04 21:28 | 5.61289 | -0.16401 | 261 ft | 132 kts | 199° |
| 2026-05-04 21:28 | 5.60526 | -0.16716 | 221 ft | 98 kts | 200° |
| 2026-05-04 21:28 | 5.60224 | -0.16842 | 215 ft | 19 kts | 202° |